Saturday, November 17, 2018, 6:41 AM GMT
Back to Local

CYFC, Fredericton, N. B.

Location: , , Canada Lat: 45.867
Local Time: 6:41 AM GMT ( 6:41 GMT) Lon: -66.533
Time Zone: GMT Elev: 55 ft

Show me the last for .
Show Decoded

2018-11-17 06:32 METAR CYFC 170632Z AUTO 29008KT 2SM -SN OVC026 M03/M03 A2957 RMK SLP015 =
2018-11-17 06:13 METAR CYFC 170613Z AUTO 29008G15KT 1 3/4SM -SN OVC028 M03/M03 A2956 RMK SLP011 =
2018-11-17 06:08 METAR CYFC 170608Z AUTO 29009KT 2 1/2SM -SN OVC030 M03/M03 A2955 RMK SLP010 =
2018-11-17 06:00 METAR CYFC 170600Z AUTO 28010KT 3SM -SN OVC030 M03/M03 A2955 RMK SLP008 =
2018-11-17 05:46 METAR CYFC 170546Z AUTO 29009KT 3SM -SN OVC026 M03/M03 A2954 RMK SLP004 =
2018-11-17 05:38 METAR CYFC 170538Z AUTO 29008KT 2SM -SN OVC020 M03/M03 A2953 RMK VIS VRB 1 1/2-3
                 SLP002 =
2018-11-17 05:34 METAR CYFC 170534Z AUTO 29010KT 1 3/4SM -SN OVC020 M03/M03 A2953 RMK VIS VRB 1
                 1/2-2 1/2 SLP001 =
2018-11-17 05:18 METAR CYFC 170518Z AUTO 29010G16KT 2SM -SN OVC018 M02/M03 A2952 RMK SLP000 =
2018-11-17 05:00 METAR CYFC 170500Z AUTO 28009KT 1 3/4SM -SN OVC018 M02/M03 A2952 RMK VIS VRB 1
                 1/4-3 SLP998 =
2018-11-17 04:32 METAR CYFC 170432Z AUTO 30010G15KT 2SM -SN OVC020 M02/M02 A2950 RMK VIS VRB 1
                 1/4-3 ICG PAST HR SLP992 =
2018-11-17 04:17 METAR CYFC 170417Z AUTO 30008G15KT 1 1/2SM -SN OVC024 M02/M02 A2949 RMK ICG PAST
                 HR SLP989 =
2018-11-17 04:07 METAR CYFC 170407Z AUTO 30010G15KT 1 1/2SM -SN FEW007 OVC026 M01/M02 A2948 RMK
                 ICG PAST HR SLP987 =
2018-11-17 04:00 METAR CYFC 170400Z AUTO 30010G15KT 1 1/2SM -SN FEW007 OVC026 M01/M02 A2948 RMK
                 ICG INTMT SLP987 =
2018-11-17 03:58 METAR CYFC 170358Z AUTO 30009KT 1 1/2SM -SN FEW007 OVC026 M01/M01 A2948 RMK ICG
                 INTMT SLP986 =
2018-11-17 03:51 METAR CYFC 170351Z AUTO 30010KT 1 1/2SM -SN FEW007 SCT011 OVC024 M01/M02 A2948
                 RMK ICG SLP986 =
2018-11-17 03:48 METAR CYFC 170348Z AUTO 29010KT 1 1/2SM -SN -FZUP SCT009 OVC024 M01/M01 A2948
                 RMK ICG SLP986 =
2018-11-17 03:39 METAR CYFC 170339Z AUTO 30009G16KT 1 1/2SM -FZRA -SN FEW007 SCT011 OVC024
                 M01/M01 A2948 RMK ICG SLP984 =
2018-11-17 03:28 METAR CYFC 170328Z AUTO 30011KT 1 3/4SM -SN FEW007 BKN024 OVC034 M01/M01 A2947
                 RMK ICG SLP983 =
2018-11-17 03:22 METAR CYFC 170322Z AUTO 30010G15KT 2 1/4SM -FZRA -SN FEW009 OVC024 M01/M02 A2947
                 RMK ICG SLP982 =
2018-11-17 03:16 METAR CYFC 170316Z AUTO 31010G15KT 3SM -FZRA -SN FEW019 BKN026 OVC034 M02/M02
                 A2947 RMK ICG SLP982 =
2018-11-17 03:09 METAR CYFC 170309Z AUTO 31009G15KT 3SM -SN FEW019 BKN026 OVC034 M02/M02 A2947
                 RMK ICG SLP982 =
2018-11-17 03:00 METAR CYFC 170300Z AUTO 30011G16KT 3SM -SN SCT019 OVC024 M02/M02 A2947 RMK ICG
                 SLP983 =
2018-11-17 02:56 METAR CYFC 170256Z AUTO 30011G16KT 3SM -SN SCT019 BKN024 OVC029 M02/M02 A2947
                 RMK ICG SLP983 =
2018-11-17 02:51 METAR CYFC 170251Z AUTO 31009G15KT 5SM -SN SCT017 OVC026 M02/M02 A2947 RMK
                 SLP983 =
2018-11-17 02:49 METAR CYFC 170249Z AUTO 31011KT 5SM -SN FEW017 OVC024 M02/M02 A2947 RMK SLP982 =
2018-11-17 02:47 METAR CYFC 170247Z AUTO 31012KT 6SM -SN FEW014 OVC024 M02/M02 A2947 RMK SLP982 =
2018-11-17 02:41 METAR CYFC 170241Z AUTO 30010KT 6SM -SN SCT014 SCT021 OVC026 M02/M02 A2947 RMK
                 SLP981 =
2018-11-17 02:37 METAR CYFC 170237Z AUTO 31010KT 5SM -SN SCT014 SCT021 OVC026 M02/M02 A2947 RMK
                 SLP981 =
2018-11-17 02:25 METAR CYFC 170225Z AUTO 31010KT 5SM -SN BKN014 BKN020 BKN029 OVC033 M02/M02
                 A2946 RMK SLP979 =
2018-11-17 02:14 METAR CYFC 170214Z AUTO 33010G15KT 6SM -SN SCT014 BKN022 OVC033 M01/M02 A2946
                 RMK SLP979 =
2018-11-17 02:00 METAR CYFC 170200Z AUTO 32011G16KT 6SM -SN FEW019 BKN035 OVC045 M02/M02 A2946
                 RMK SLP977 =
2018-11-17 01:46 METAR CYFC 170146Z AUTO 31009KT 8SM -SN SCT017 SCT028 BKN041 OVC048 M02/M02
                 A2946 RMK PRESRR SLP978 =
2018-11-17 01:36 METAR CYFC 170136Z AUTO 32008KT 8SM FEW015 SCT038 OVC049 M01/M02 A2945 RMK
                 SLP975 =
2018-11-17 01:23 METAR CYFC 170123Z AUTO 33010G15KT 6SM -SN SCT014 SCT021 BKN039 OVC050 M01/M02
                 A2944 RMK SLP972 =
2018-11-17 01:01 METAR CYFC 170101Z AUTO 35008KT 3SM -SN FEW019 BKN026 OVC048 M01/M02 A2943 RMK
                 SLP968 =
2018-11-17 01:00 METAR CYFC 170100Z AUTO 35009KT 3SM -SN BKN024 OVC048 M01/M02 A2943 RMK SLP968 =
2018-11-17 00:51 METAR CYFC 170051Z AUTO 35010KT 3SM -SN FEW015 OVC024 M01/M02 A2943 RMK SLP969 =
2018-11-17 00:03 METAR CYFC 170003Z AUTO 36010G17KT 5SM -SN FEW015 OVC028 M02/M03 A2943 RMK
                 SLP968 =
2018-11-17 00:00 METAR CYFC 170000Z AUTO 36011G17KT 6SM -SN FEW018 OVC028 M01/M03 A2943 RMK
                 SLP968 =
2018-11-16 23:48 METAR CYFC 162348Z AUTO 01013G19KT 9SM -SN SCT018 OVC032 M01/M03 A2943 RMK
                 SLP968 =
2018-11-16 23:16 METAR CYFC 162316Z AUTO 01012G18KT 6SM -SN BKN014 OVC023 M01/M03 A2945 RMK
                 SLP974 =
2018-11-16 23:00 METAR CYFC 162300Z AUTO 01013G22KT 3SM -SN FEW010 BKN014 BKN020 OVC024 M02/M02
                 A2944 RMK SLP971 =
2018-11-16 22:58 METAR CYFC 162258Z AUTO 01012G22KT 3SM -SN FEW010 BKN016 OVC020 M02/M02 A2943
                 RMK SLP970 =
2018-11-16 22:50 METAR CYFC 162250Z AUTO 02014G24KT 2SM -SN OVC015 M02/M02 A2943 RMK SLP968 =
2018-11-16 22:00 METAR CYFC 162200Z AUTO 01012G22KT 1SM R09/3500FT/N -SN OVC010 M03/M03 A2947 RMK
                 PRESFR SLP981 =
2018-11-16 21:56 METAR CYFC 162156Z AUTO 01015G22KT 1SM R09/3500FT/N -SN VV010 M03/M03 A2947 RMK
                 PRESFR SLP981 =
2018-11-16 21:00 METAR CYFC 162100Z AUTO 01012G19KT 3/4SM R09/5500FT/D -SN VV009 M03/M04 A2951
                 RMK SLP996 =
2018-11-16 20:38 METAR CYFC 162038Z AUTO 01013G18KT 3/4SM R09/6000FT/N -SN VV010 M03/M04 A2951
                 RMK SLP995 =
2018-11-16 20:29 METAR CYFC 162029Z AUTO 01012G20KT 3/4SM R09/6000FT/N -SN BKN008 OVC012 M03/M04
                 A2951 RMK SLP997 =
2018-11-16 20:00 METAR CYFC 162000Z AUTO 02013KT 3/8SM R09/3500FT/N SN VV007 M03/M03 A2952 RMK
                 SLP999 =
2018-11-16 19:30 METAR CYFC 161930Z AUTO 02013G19KT 5/8SM R09/5000FT/N -SN VV010 M03/M03 A2954
                 RMK SLP005 =
2018-11-16 19:00 METAR CYFC 161900Z AUTO 02016G22KT 1 1/4SM -SN OVC016 M03/M04 A2955 RMK PRESFR
                 SLP008 =
2018-11-16 18:39 METAR CYFC 161839Z AUTO 02014G20KT 1 3/4SM -SN BKN013 OVC021 M03/M04 A2958 RMK
                 SLP018 =
2018-11-16 18:31 METAR CYFC 161831Z AUTO 03015G20KT 2SM -SN SCT013 OVC021 M03/M04 A2959 RMK
                 SLP021 =
2018-11-16 18:00 METAR CYFC 161800Z AUTO 03018G25KT 1SM R09/P6000FT/D -SN BKN015 OVC022 M03/M04
                 A2961 RMK SLP029 =
2018-11-16 17:45 METAR CYFC 161745Z AUTO 03018G23KT 1 3/4SM -SN BKN015 OVC022 M03/M04 A2962 RMK
                 PRESFR SLP033 =
2018-11-16 17:32 METAR CYFC 161732Z AUTO 03014G22KT 2SM -SN BKN013 BKN018 OVC023 M03/M04 A2963
                 RMK PRESFR SLP036 =
2018-11-16 17:03 METAR CYFC 161703Z AUTO 04015G23KT 1 3/4SM -SN FEW009 BKN013 BKN020 OVC032
                 M04/M05 A2968 RMK SLP053 =
2018-11-16 17:01 METAR CYFC 161701Z AUTO 04015G23KT 2 1/4SM -SN FEW009 BKN013 BKN020 OVC032
                 M04/M05 A2968 RMK SLP054 =
2018-11-16 17:00 METAR CYFC 161700Z AUTO 04016G23KT 3SM -SN SCT009 BKN013 BKN020 OVC032 M04/M05
                 A2968 RMK PRESFR SLP054 =
2018-11-16 16:48 METAR CYFC 161648Z AUTO 03015G23KT 3SM -SN SCT011 BKN019 BKN032 OVC040 M04/M05
                 A2969 RMK PRESFR SLP058 =
2018-11-16 16:43 METAR CYFC 161643Z AUTO 03017KT 2SM -SN SCT011 BKN019 OVC032 M04/M05 A2970 RMK
                 PRESFR SLP061 =
2018-11-16 16:32 METAR CYFC 161632Z AUTO 04012G20KT 2SM -SN SCT009 BKN025 OVC035 M04/M05 A2972
                 RMK PRESFR SLP067 =
2018-11-16 16:26 METAR CYFC 161626Z AUTO 04015G20KT 1 1/4SM -SN FEW009 SCT013 OVC025 M04/M05
                 A2973 RMK PRESFR SLP070 =
2018-11-16 16:10 METAR CYFC 161610Z AUTO 04014KT 1SM R09/P6000FT/N -SN FEW009 SCT014 OVC023
                 M04/M05 A2976 RMK PRESFR SLP080 =
2018-11-16 16:00 METAR CYFC 161600Z AUTO 04011KT 1 1/2SM -SN SCT012 OVC025 M04/M05 A2978 RMK
                 PRESFR SLP089 =
2018-11-16 15:59 METAR CYFC 161559Z AUTO 04012KT 1 3/4SM -SN SCT012 OVC025 M04/M05 A2978 RMK
                 PRESFR SLP089 =
2018-11-16 15:52 METAR CYFC 161552Z AUTO 04012G17KT 2 1/2SM -SN SCT010 OVC025 M05/M05 A2979 RMK
                 PRESFR SLP091 =
2018-11-16 15:50 METAR CYFC 161550Z AUTO 04012G17KT 2SM -SN SCT010 OVC023 M05/M06 A2979 RMK
                 PRESFR SLP092 =
2018-11-16 15:40 METAR CYFC 161540Z AUTO 04011G18KT 3/4SM R09/4500VP6000FT -SN FEW010 OVC017
                 M05/M05 A2981 RMK PRESFR SLP099 =
2018-11-16 15:32 METAR CYFC 161532Z AUTO 04014KT 5/8SM R09/5500FT/D -SN FEW007 OVC013 M05/M05
                 A2982 RMK PRESFR SLP102 =
2018-11-16 15:24 METAR CYFC 161524Z AUTO 05013KT 3/4SM R09/5000FT/U -SN FEW007 OVC012 M05/M05
                 A2983 RMK PRESFR SLP106 =
2018-11-16 15:15 METAR CYFC 161515Z AUTO 04013KT 1/2SM R09/2800V4000FT SN FEW006 OVC010 M05/M05
                 A2985 RMK PRESFR SLP110 =
2018-11-16 15:00 METAR CYFC 161500Z AUTO 04014G19KT 3/8SM R09/2800FT/N SN VV007 M05/M05 A2987 RMK
                 PRESFR SLP117 =
2018-11-16 14:09 METAR CYFC 161409Z AUTO 05012KT 1/2SM R09/3000V4500FT/ -SN VV010 M05/M06 A2995
                 RMK PRESFR SLP145 =
2018-11-16 14:00 METAR CYFC 161400Z AUTO 04011KT 3/4SM R09/5000FT/N -SN VV012 M05/M06 A2996 RMK
                 PRESFR SLP150 =
2018-11-16 13:56 METAR CYFC 161356Z AUTO 05011KT 3/4SM R09/3500V5500FT/ -SN VV013 M05/M06 A2997
                 RMK PRESFR SLP152 =
2018-11-16 13:49 METAR CYFC 161349Z AUTO 05007KT 1/2SM R09/4000FT/N -SN VV013 M05/M06 A2998 RMK
                 SLP156 =
2018-11-16 13:18 METAR CYFC 161318Z AUTO 05010KT 1 3/4SM -SN OVC023 M05/M07 A3001 RMK PRESFR
                 SLP166 =
2018-11-16 13:17 METAR CYFC 161317Z AUTO 06011KT 2SM -SN OVC023 M05/M07 A3001 RMK PRESFR SLP166 =
2018-11-16 13:10 METAR CYFC 161310Z AUTO 06009KT 2 1/2SM -SN OVC029 M05/M07 A3002 RMK VIS VRB 1
                 3/4-3 PRESFR SLP170 =
2018-11-16 13:01 METAR CYFC 161301Z AUTO 06008KT 5SM -SN OVC037 M05/M07 A3004 RMK SLP174 =
2018-11-16 13:00 METAR CYFC 161300Z AUTO 06009KT 6SM -SN OVC039 M05/M07 A3004 RMK PRESFR SLP174 =
2018-11-16 12:15 METAR CYFC 161215Z AUTO 04009KT 9SM -SN FEW024 OVC055 M05/M08 A3008 RMK PRESFR
                 SLP188 =
2018-11-16 12:00 METAR CYFC 161200Z AUTO 05007KT 9SM SCT024 BKN055 OVC075 M05/M08 A3009 RMK
                 SLP194 =
2018-11-16 11:48 METAR CYFC 161148Z AUTO 05005KT 9SM BKN024 OVC080 M05/M08 A3010 RMK SLP196 =
2018-11-16 11:00 METAR CYFC 161100Z AUTO 05009KT 9SM OVC095 M06/M08 A3011 RMK SLP200 =
2018-11-16 10:00 METAR CYFC 161000Z AUTO 05008KT 9SM FEW023 OVC100 M06/M09 A3017 RMK PRESFR
                 SLP218 =
2018-11-16 09:00 METAR CYFC 160900Z AUTO 03006KT 9SM OVC130 M07/M09 A3020 RMK SLP229 =
2018-11-16 08:00 METAR CYFC 160800Z AUTO 05003KT 9SM OVC140 M06/M08 A3026 RMK SLP250 =
2018-11-16 07:00 METAR CYFC 160700Z AUTO 05004KT 9SM OVC160 M07/M08 A3029 RMK SLP260 =

Support USWX by starting your Amazon purchase here.